createdAt,value
2018-09-02T00:00:30.501Z,13.70
2018-09-02T00:02:34.650Z,13.50
2018-09-02T00:04:38.654Z,13.40
2018-09-02T00:06:42.694Z,13.30
2018-09-02T00:08:46.583Z,13.20
2018-09-02T00:10:50.562Z,13.10
2018-09-02T00:12:54.544Z,13.10
2018-09-02T00:14:58.477Z,13.00
2018-09-02T00:17:02.425Z,13.40
2018-09-02T00:19:06.362Z,14.10
2018-09-02T00:21:10.530Z,14.90
2018-09-02T00:23:14.624Z,15.50
2018-09-02T00:25:19.086Z,15.60
2018-09-02T00:27:23.199Z,15.30
2018-09-02T00:29:27.237Z,14.90
2018-09-02T00:31:31.198Z,14.60
2018-09-02T00:33:35.334Z,14.40
2018-09-02T00:35:39.447Z,14.10
2018-09-02T00:37:43.343Z,13.90
2018-09-02T00:39:47.244Z,13.70
2018-09-02T00:41:51.476Z,13.60
2018-09-02T00:43:55.576Z,13.40
2018-09-02T00:45:59.617Z,13.30
2018-09-02T00:48:03.644Z,13.10
2018-09-02T00:50:08.486Z,13.10
2018-09-02T00:52:12.631Z,13.00
2018-09-02T00:54:16.826Z,12.90
2018-09-02T00:56:20.851Z,12.80
2018-09-02T00:58:24.873Z,12.70
2018-09-02T01:00:29.077Z,12.70
2018-09-02T01:02:33.095Z,13.10
2018-09-02T01:04:37.038Z,13.90
2018-09-02T01:06:40.883Z,14.70
2018-09-02T01:08:45.262Z,15.20
2018-09-02T01:10:49.772Z,15.30
2018-09-02T01:12:53.715Z,15.10
2018-09-02T01:14:57.727Z,14.80
2018-09-02T01:17:01.975Z,14.50
2018-09-02T01:19:05.924Z,14.10
2018-09-02T01:21:10.086Z,13.80
2018-09-02T01:23:14.390Z,13.60
2018-09-02T01:25:18.357Z,13.40
2018-09-02T01:27:22.314Z,13.20
2018-09-02T01:29:26.297Z,13.10
2018-09-02T01:31:30.527Z,12.90
2018-09-02T01:33:34.779Z,12.90
2018-09-02T01:35:38.649Z,12.80
2018-09-02T01:37:42.667Z,12.70
2018-09-02T01:39:46.783Z,12.60
2018-09-02T01:41:51.259Z,12.60
2018-09-02T01:43:55.312Z,12.50
2018-09-02T01:45:59.308Z,12.50
2018-09-02T01:48:03.869Z,12.70
2018-09-02T01:50:08.140Z,13.40
2018-09-02T01:52:12.285Z,14.20
2018-09-02T01:54:16.397Z,14.80
2018-09-02T01:56:20.380Z,15.20
2018-09-02T01:58:24.369Z,15.00
2018-09-02T02:00:28.518Z,14.60
2018-09-02T02:02:32.708Z,14.30
2018-09-02T02:04:42.047Z,14.00
2018-09-02T02:06:46.108Z,13.70
2018-09-02T02:08:50.170Z,13.50
2018-09-02T02:10:54.296Z,13.20
2018-09-02T02:12:59.757Z,13.10
2018-09-02T02:15:04.181Z,12.90
2018-09-02T02:17:08.197Z,12.80
2018-09-02T02:19:12.246Z,12.70
2018-09-02T02:21:16.174Z,12.60
2018-09-02T02:23:20.254Z,12.50
2018-09-02T02:25:24.650Z,12.40
2018-09-02T02:27:28.457Z,12.30
2018-09-02T02:29:32.292Z,12.20
2018-09-02T02:31:36.312Z,12.20
2018-09-02T02:33:40.367Z,12.10
2018-09-02T02:35:44.507Z,12.40
2018-09-02T02:37:48.514Z,13.20
2018-09-02T02:39:52.562Z,14.00
2018-09-02T02:41:56.737Z,14.60
2018-09-02T02:44:00.719Z,14.90
2018-09-02T02:46:04.942Z,14.70
2018-09-02T02:48:08.948Z,14.30
2018-09-02T02:50:13.140Z,14.00
2018-09-02T02:52:17.167Z,13.70
2018-09-02T02:54:21.211Z,13.40
2018-09-02T02:56:25.172Z,13.10
2018-09-02T02:58:29.211Z,12.90
2018-09-02T03:00:33.542Z,12.70
2018-09-02T03:02:37.717Z,12.60
2018-09-02T03:04:42.153Z,12.40
2018-09-02T03:06:46.138Z,12.30
2018-09-02T03:08:50.225Z,12.20
2018-09-02T03:10:54.523Z,12.10
2018-09-02T03:12:58.578Z,12.10
2018-09-02T03:17:06.182Z,11.90
2018-09-02T03:19:10.336Z,11.90
2018-09-02T03:21:14.343Z,11.90
2018-09-02T03:23:18.385Z,11.90
2018-09-02T03:25:22.756Z,12.60
2018-09-02T03:27:27.039Z,13.40
2018-09-02T03:29:31.114Z,14.10
2018-09-02T03:31:35.134Z,14.50
2018-09-02T03:33:39.102Z,14.50
2018-09-02T03:35:43.158Z,14.20
2018-09-02T03:37:46.953Z,13.90
2018-09-02T03:39:50.865Z,13.60
2018-09-02T03:41:54.672Z,13.30
2018-09-02T03:43:58.779Z,13.10
2018-09-02T03:46:03.106Z,12.90
2018-09-02T03:48:06.972Z,12.70
2018-09-02T03:50:11.258Z,12.60
2018-09-02T03:52:15.583Z,12.40
2018-09-02T03:54:19.728Z,12.30
2018-09-02T03:56:23.633Z,12.20
2018-09-02T03:58:27.514Z,12.00
2018-09-02T04:00:31.339Z,12.00
2018-09-02T04:02:35.184Z,12.00
2018-09-02T04:04:39.341Z,11.90
2018-09-02T04:06:43.075Z,11.80
2018-09-02T04:08:47.282Z,11.70
2018-09-02T04:10:51.273Z,11.70
2018-09-02T04:12:55.290Z,11.90
2018-09-02T04:14:59.325Z,12.60
2018-09-02T04:17:03.333Z,13.40
2018-09-02T04:19:07.156Z,14.00
2018-09-02T04:21:11.069Z,14.20
2018-09-02T04:23:15.129Z,14.20
2018-09-02T04:25:18.853Z,13.80
2018-09-02T04:27:22.627Z,13.50
2018-09-02T04:29:26.530Z,13.20
2018-09-02T04:31:30.617Z,12.90
2018-09-02T04:33:34.629Z,12.60
2018-09-02T04:35:38.756Z,12.40
2018-09-02T04:37:42.624Z,12.20
2018-09-02T04:39:46.673Z,12.10
2018-09-02T04:41:50.967Z,12.00
2018-09-02T04:43:55.367Z,11.80
2018-09-02T04:45:59.627Z,11.70
2018-09-02T04:48:03.577Z,11.70
2018-09-02T04:50:18.529Z,11.60
2018-09-02T04:52:22.583Z,11.50
2018-09-02T04:54:26.565Z,11.50
2018-09-02T04:58:34.070Z,11.30
2018-09-02T05:00:38.043Z,11.30
2018-09-02T05:02:41.978Z,11.60
2018-09-02T05:04:46.099Z,12.30
2018-09-02T05:06:50.054Z,13.10
2018-09-02T05:08:53.820Z,13.80
2018-09-02T05:10:57.853Z,14.10
2018-09-02T05:13:01.870Z,13.90
2018-09-02T05:15:05.871Z,13.60
2018-09-02T05:17:09.800Z,13.30
2018-09-02T05:19:13.644Z,13.00
2018-09-02T05:21:17.648Z,12.70
2018-09-02T05:23:21.657Z,12.50
2018-09-02T05:25:25.756Z,12.40
2018-09-02T05:27:29.930Z,12.20
2018-09-02T05:29:34.086Z,12.10
2018-09-02T05:31:38.127Z,11.90
2018-09-02T05:33:42.239Z,11.90
2018-09-02T05:35:46.290Z,11.90
2018-09-02T05:37:50.292Z,11.80
2018-09-02T05:39:54.316Z,11.80
2018-09-02T05:41:58.270Z,11.80
2018-09-02T05:44:02.389Z,11.70
2018-09-02T05:46:06.613Z,11.80
2018-09-02T05:48:10.710Z,11.70
2018-09-02T05:50:14.793Z,11.80
2018-09-02T05:52:21.646Z,12.60
2018-09-02T05:54:25.705Z,12.70
2018-09-02T05:56:29.701Z,13.60
2018-09-02T05:58:33.701Z,14.50
2018-09-02T06:00:37.671Z,15.00
2018-09-02T06:02:41.737Z,15.20
2018-09-02T06:04:45.811Z,15.00
2018-09-02T06:06:49.901Z,14.90
2018-09-02T06:08:53.885Z,14.80
2018-09-02T06:10:57.825Z,14.80
2018-09-02T06:13:01.900Z,14.80
2018-09-02T06:15:06.196Z,14.80
2018-09-02T06:17:09.996Z,14.90
2018-09-02T06:19:14.216Z,15.30
2018-09-02T06:21:18.239Z,15.20
2018-09-02T06:23:24.887Z,15.30
2018-09-02T06:25:28.959Z,15.40
2018-09-02T06:27:32.973Z,15.70
2018-09-02T06:31:40.692Z,16.00
2018-09-02T06:33:44.718Z,16.00
2018-09-02T06:37:52.655Z,17.80
2018-09-02T06:41:59.919Z,19.50
2018-09-02T06:44:03.755Z,20.40
2018-09-02T06:46:07.520Z,20.70
2018-09-02T06:48:11.351Z,21.20
2018-09-02T06:50:15.139Z,21.00
2018-09-02T06:52:18.948Z,20.90
2018-09-02T06:54:23.153Z,20.70
2018-09-02T06:56:27.072Z,20.60
2018-09-02T06:58:30.908Z,20.30
2018-09-02T07:00:36.134Z,20.10
2018-09-02T07:02:39.916Z,19.70
2018-09-02T07:04:43.852Z,19.90
2018-09-02T07:06:47.671Z,19.80
2018-09-02T07:08:51.376Z,20.10
2018-09-02T07:10:55.164Z,20.20
2018-09-02T07:12:59.050Z,20.30
2018-09-02T07:15:02.841Z,20.50
2018-09-02T07:17:06.681Z,21.30
2018-09-02T07:19:10.465Z,22.20
2018-09-02T07:21:14.302Z,23.20
2018-09-02T07:23:18.546Z,23.90
2018-09-02T07:25:22.590Z,24.40
2018-09-02T07:27:26.643Z,24.40
2018-09-02T07:29:31.158Z,24.10
2018-09-02T07:31:35.313Z,23.60
2018-09-02T07:33:39.342Z,23.20
2018-09-02T07:35:43.564Z,22.90
2018-09-02T07:37:47.383Z,22.50
2018-09-02T07:39:51.510Z,22.10
2018-09-02T07:41:55.353Z,21.80
2018-09-02T07:44:00.145Z,21.60
2018-09-02T07:46:04.024Z,21.60
2018-09-02T07:48:07.859Z,21.40
2018-09-02T07:50:11.620Z,21.70
2018-09-02T07:52:15.321Z,22.30
2018-09-02T07:54:19.140Z,23.00
2018-09-02T07:56:23.040Z,23.60
2018-09-02T07:58:27.037Z,24.10
2018-09-02T08:00:30.795Z,24.30
2018-09-02T08:02:34.745Z,23.90
2018-09-02T08:04:38.475Z,23.50
2018-09-02T08:06:42.234Z,23.00
2018-09-02T08:08:46.281Z,22.60
2018-09-02T08:10:50.040Z,22.30
2018-09-02T08:12:54.136Z,22.10
2018-09-02T08:14:57.847Z,21.90
2018-09-02T08:17:01.574Z,21.60
2018-09-02T08:19:05.452Z,21.50
2018-09-02T08:21:09.227Z,21.60
2018-09-02T08:23:13.084Z,22.20
2018-09-02T08:25:16.979Z,22.90
2018-09-02T08:27:20.733Z,23.60
2018-09-02T08:29:24.478Z,24.00
2018-09-02T08:31:28.764Z,24.10
2018-09-02T08:33:32.504Z,23.80
2018-09-02T08:35:36.310Z,23.50
2018-09-02T08:37:40.048Z,23.10
2018-09-02T08:39:43.812Z,22.50
2018-09-02T08:41:47.612Z,22.10
2018-09-02T08:45:54.708Z,21.80
2018-09-02T08:47:58.727Z,21.80
2018-09-02T08:50:02.520Z,21.50
2018-09-02T08:52:06.626Z,21.60
2018-09-02T08:54:10.357Z,22.40
2018-09-02T08:56:14.284Z,23.30
2018-09-02T08:58:18.095Z,24.40
2018-09-02T09:00:21.961Z,24.20
2018-09-02T09:02:25.752Z,24.40
2018-09-02T09:04:29.500Z,23.60
2018-09-02T09:06:33.315Z,23.20
2018-09-02T09:08:37.175Z,23.10
2018-09-02T09:10:40.894Z,23.10
2018-09-02T09:14:48.731Z,22.50
2018-09-02T09:16:52.630Z,22.40
2018-09-02T09:18:56.451Z,22.50
2018-09-02T09:21:00.330Z,23.10
2018-09-02T09:23:04.092Z,23.90
2018-09-02T09:25:09.726Z,24.60
2018-09-02T09:27:13.493Z,25.00
2018-09-02T09:29:17.449Z,25.30
2018-09-02T09:31:21.239Z,25.30
2018-09-02T09:33:25.114Z,25.30
2018-09-02T09:35:28.962Z,24.90
2018-09-02T09:37:32.816Z,24.40
2018-09-02T09:39:36.701Z,24.10
2018-09-02T09:41:40.793Z,23.70
2018-09-02T09:43:44.562Z,23.40
2018-09-02T09:45:48.358Z,23.30
2018-09-02T09:47:52.072Z,23.80
2018-09-02T09:49:56.013Z,24.40
2018-09-02T09:51:59.987Z,25.00
2018-09-02T09:54:04.347Z,25.20
2018-09-02T09:56:08.242Z,25.50
2018-09-02T09:58:12.447Z,25.70
2018-09-02T10:00:20.776Z,25.90
2018-09-02T10:02:25.304Z,26.00
2018-09-02T10:04:29.405Z,25.50
2018-09-02T10:06:34.890Z,25.00
2018-09-02T10:08:39.179Z,24.60
2018-09-02T10:10:43.385Z,24.30
2018-09-02T10:12:47.325Z,24.10
2018-09-02T10:14:51.527Z,23.90
2018-09-02T10:16:56.566Z,24.00
2018-09-02T10:19:00.472Z,24.40
2018-09-02T10:21:04.731Z,25.20
2018-09-02T10:23:09.304Z,25.90
2018-09-02T10:25:13.537Z,26.60
2018-09-02T10:27:17.761Z,27.00
2018-09-02T10:29:22.077Z,27.20
2018-09-02T10:31:26.485Z,27.70
2018-09-02T10:33:30.455Z,26.80
2018-09-02T10:35:34.482Z,26.60
2018-09-02T10:37:38.378Z,26.20
2018-09-02T10:39:42.180Z,26.10
2018-09-02T10:41:46.347Z,25.90
2018-09-02T10:43:50.603Z,26.10
2018-09-02T10:45:54.382Z,26.30
2018-09-02T10:47:58.705Z,27.10
2018-09-02T10:50:03.061Z,27.10
2018-09-02T10:52:07.253Z,27.20
2018-09-02T10:54:11.733Z,27.30
2018-09-02T10:56:15.857Z,27.50
2018-09-02T10:58:20.208Z,27.70
2018-09-02T11:00:24.317Z,27.60
2018-09-02T11:02:28.648Z,26.90
2018-09-02T11:04:33.879Z,26.80
2018-09-02T11:06:37.726Z,26.60
2018-09-02T11:08:41.638Z,26.60
2018-09-02T11:10:45.352Z,26.50
2018-09-02T11:12:49.103Z,26.30
2018-09-02T11:14:52.856Z,26.20
2018-09-02T11:16:56.600Z,26.40
2018-09-02T11:19:00.426Z,26.90
2018-09-02T11:21:04.282Z,27.10
2018-09-02T11:23:08.758Z,27.70
2018-09-02T11:25:12.535Z,27.70
2018-09-02T11:27:16.330Z,27.70
2018-09-02T11:29:20.187Z,27.60
2018-09-02T11:31:23.945Z,27.10
2018-09-02T11:33:27.804Z,27.00
2018-09-02T11:35:31.613Z,26.70
2018-09-02T11:37:35.611Z,26.60
2018-09-02T11:39:39.783Z,26.60
2018-09-02T11:41:43.825Z,26.20
2018-09-02T11:43:47.864Z,25.70
2018-09-02T11:45:51.979Z,25.90
2018-09-02T11:47:55.972Z,26.70
2018-09-02T11:49:59.900Z,26.80
2018-09-02T11:52:03.879Z,27.20
2018-09-02T11:54:08.048Z,27.50
2018-09-02T11:56:11.805Z,28.00
2018-09-02T11:58:15.868Z,28.00
2018-09-02T12:00:20.431Z,28.00
2018-09-02T12:02:24.409Z,26.90
2018-09-02T12:04:28.659Z,26.70
2018-09-02T12:06:32.754Z,26.60
2018-09-02T12:08:36.776Z,26.50
2018-09-02T12:10:40.787Z,26.50
2018-09-02T12:12:44.744Z,26.30
2018-09-02T12:14:48.761Z,26.10
2018-09-02T12:16:52.927Z,26.80
2018-09-02T12:18:56.940Z,27.50
2018-09-02T12:21:01.044Z,28.10
2018-09-02T12:23:04.869Z,28.10
2018-09-02T12:25:08.625Z,28.40
2018-09-02T12:27:12.487Z,28.40
2018-09-02T12:29:16.463Z,28.40
2018-09-02T12:31:20.269Z,28.20
2018-09-02T12:33:24.282Z,27.60
2018-09-02T12:35:28.093Z,27.80
2018-09-02T12:37:31.869Z,27.50
2018-09-02T12:39:35.697Z,27.40
2018-09-02T12:41:39.596Z,26.70
2018-09-02T12:43:43.329Z,26.70
2018-09-02T12:45:47.452Z,26.80
2018-09-02T12:47:51.361Z,26.90
2018-09-02T12:49:55.476Z,27.30
2018-09-02T12:51:59.461Z,27.60
2018-09-02T12:54:03.450Z,28.00
2018-09-02T12:56:07.418Z,28.10
2018-09-02T12:58:11.303Z,28.00
2018-09-02T13:00:15.311Z,27.60
2018-09-02T13:02:19.308Z,27.00
2018-09-02T13:04:23.529Z,27.00
2018-09-02T13:06:27.883Z,26.40
2018-09-02T13:08:31.865Z,26.50
2018-09-02T13:10:35.927Z,26.40
2018-09-02T13:12:40.129Z,26.10
2018-09-02T13:14:44.230Z,26.00
2018-09-02T13:16:55.863Z,26.70
2018-09-02T13:18:59.889Z,27.00
2018-09-02T13:21:03.963Z,27.60
2018-09-02T13:23:08.096Z,27.70
2018-09-02T13:25:12.076Z,27.80
2018-09-02T13:27:16.194Z,27.30
2018-09-02T13:29:20.442Z,27.00
2018-09-02T13:31:24.417Z,27.00
2018-09-02T13:35:32.269Z,26.40
2018-09-02T13:37:36.503Z,26.20
2018-09-02T13:39:40.521Z,25.90
2018-09-02T13:41:44.814Z,25.70
2018-09-02T13:43:49.180Z,25.60
2018-09-02T13:45:53.468Z,26.20
2018-09-02T13:47:57.715Z,26.80
2018-09-02T13:50:01.868Z,27.30
2018-09-02T13:52:06.364Z,27.50
2018-09-02T13:54:10.586Z,27.70
2018-09-02T13:56:14.544Z,27.40
2018-09-02T13:58:18.828Z,27.00
2018-09-02T14:00:23.202Z,26.40
2018-09-02T14:02:27.204Z,25.90
2018-09-02T14:04:31.456Z,25.70
2018-09-02T14:06:35.932Z,25.50
2018-09-02T14:08:39.887Z,25.30
2018-09-02T14:10:43.914Z,25.40
2018-09-02T14:12:47.897Z,25.40
2018-09-02T14:14:52.322Z,25.70
2018-09-02T14:16:56.421Z,26.20
2018-09-02T14:19:00.482Z,26.60
2018-09-02T14:21:04.716Z,27.00
2018-09-02T14:23:08.831Z,27.00
2018-09-02T14:25:12.844Z,27.10
2018-09-02T14:27:16.900Z,27.10
2018-09-02T14:29:21.035Z,26.70
2018-09-02T14:31:25.091Z,26.30
2018-09-02T14:33:29.070Z,25.90
2018-09-02T14:35:33.228Z,25.70
2018-09-02T14:37:38.519Z,25.50
2018-09-02T14:39:42.716Z,25.40
2018-09-02T14:41:46.703Z,25.40
2018-09-02T14:43:50.678Z,25.40
2018-09-02T14:45:54.887Z,25.80
2018-09-02T14:47:59.155Z,26.10
2018-09-02T14:50:03.306Z,26.60
2018-09-02T14:52:07.267Z,26.90
2018-09-02T14:54:12.375Z,27.10
2018-09-02T14:56:16.597Z,27.30
2018-09-02T14:58:20.882Z,27.30
2018-09-02T15:00:24.958Z,26.90
2018-09-02T15:02:28.957Z,26.20
2018-09-02T15:04:32.961Z,25.40
2018-09-02T15:06:37.053Z,25.40
2018-09-02T15:08:41.239Z,25.20
2018-09-02T15:10:45.324Z,25.00
2018-09-02T15:12:49.227Z,24.80
2018-09-02T15:14:53.329Z,25.30
2018-09-02T15:16:57.505Z,25.40
2018-09-02T15:19:01.522Z,25.90
2018-09-02T15:21:05.680Z,26.20
2018-09-02T15:23:10.071Z,26.50
2018-09-02T15:25:14.098Z,26.50
2018-09-02T15:27:17.859Z,26.50
2018-09-02T15:29:21.687Z,26.30
2018-09-02T15:31:25.490Z,26.30
2018-09-02T15:33:29.497Z,26.40
2018-09-02T15:35:33.231Z,26.50
2018-09-02T15:37:37.004Z,26.90
2018-09-02T15:39:40.802Z,27.20
2018-09-02T15:41:44.569Z,27.30
2018-09-02T15:43:48.569Z,27.30
2018-09-02T15:45:52.425Z,27.40
2018-09-02T15:47:56.322Z,27.50
2018-09-02T15:50:00.190Z,27.50
2018-09-02T15:52:03.960Z,27.10
2018-09-02T15:54:12.211Z,26.40
2018-09-02T15:56:15.970Z,25.90
2018-09-02T15:58:19.692Z,25.50
2018-09-02T16:00:23.585Z,25.00
2018-09-02T16:02:27.368Z,24.60
2018-09-02T16:04:31.295Z,24.40
2018-09-02T16:06:35.049Z,24.30
2018-09-02T16:08:38.961Z,24.90
2018-09-02T16:10:42.747Z,25.70
2018-09-02T16:12:46.492Z,26.00
2018-09-02T16:14:50.197Z,26.30
2018-09-02T16:16:54.025Z,26.40
2018-09-02T16:18:57.958Z,26.50
2018-09-02T16:21:01.746Z,26.00
2018-09-02T16:23:05.583Z,25.40
2018-09-02T16:25:09.549Z,25.10
2018-09-02T16:27:13.307Z,24.70
2018-09-02T16:29:17.098Z,24.50
2018-09-02T16:31:21.099Z,24.20
2018-09-02T16:33:24.875Z,23.90
2018-09-02T16:35:28.625Z,23.90
2018-09-02T16:37:32.527Z,24.50
2018-09-02T16:39:36.311Z,25.20
2018-09-02T16:43:43.566Z,26.10
2018-09-02T16:45:47.317Z,26.50
2018-09-02T16:47:51.076Z,26.40
2018-09-02T16:49:54.886Z,25.90
2018-09-02T16:51:58.663Z,24.80
2018-09-02T16:54:02.447Z,24.80
2018-09-02T16:56:06.788Z,24.30
2018-09-02T16:58:10.525Z,24.00
2018-09-02T17:00:14.283Z,23.70
2018-09-02T17:02:18.033Z,24.30
2018-09-02T17:04:22.935Z,24.40
2018-09-02T17:06:26.747Z,25.00
2018-09-02T17:08:30.814Z,25.40
2018-09-02T17:10:34.548Z,25.80
2018-09-02T17:12:38.406Z,25.90
2018-09-02T17:14:42.105Z,25.70
2018-09-02T17:16:45.936Z,25.10
2018-09-02T17:18:52.195Z,24.60
2018-09-02T17:20:55.982Z,23.80
2018-09-02T17:23:05.021Z,23.50
2018-09-02T17:25:09.168Z,23.50
2018-09-02T17:27:12.956Z,23.20
2018-09-02T17:29:16.914Z,23.00
2018-09-02T17:31:20.755Z,23.00
2018-09-02T17:33:24.576Z,24.50
2018-09-02T17:35:28.330Z,24.50
2018-09-02T17:37:32.124Z,24.90
2018-09-02T17:39:35.917Z,25.10
2018-09-02T17:41:39.973Z,24.70
2018-09-02T17:43:43.862Z,24.70
2018-09-02T17:45:47.760Z,23.70
2018-09-02T17:47:51.523Z,23.30
2018-09-02T17:49:55.303Z,22.90
2018-09-02T17:51:59.068Z,22.80
2018-09-02T17:54:02.854Z,22.50
2018-09-02T17:58:10.065Z,22.20
2018-09-02T18:02:21.368Z,23.30
2018-09-02T18:04:25.316Z,24.00
2018-09-02T18:06:29.135Z,24.40
2018-09-02T18:08:32.971Z,24.70
2018-09-02T18:10:38.016Z,24.50
2018-09-02T18:12:42.012Z,24.00
2018-09-02T18:14:46.592Z,23.10
2018-09-02T18:16:50.539Z,23.10
2018-09-02T18:18:54.569Z,22.70
2018-09-02T18:20:58.360Z,22.50
2018-09-02T18:23:02.225Z,22.20
2018-09-02T18:25:06.320Z,22.00
2018-09-02T18:27:10.570Z,22.00
2018-09-02T18:29:14.562Z,23.20
2018-09-02T18:31:18.378Z,23.80
2018-09-02T18:33:22.750Z,23.90
2018-09-02T18:35:26.904Z,24.30
2018-09-02T18:37:31.076Z,24.30
2018-09-02T18:39:35.223Z,23.40
2018-09-02T18:41:39.154Z,23.30
2018-09-02T18:43:43.071Z,22.80
2018-09-02T18:45:46.883Z,22.50
2018-09-02T18:47:50.734Z,22.10
2018-09-02T18:49:54.592Z,21.80
2018-09-02T18:51:58.765Z,21.70
2018-09-02T18:54:02.958Z,21.30
2018-09-02T18:56:07.985Z,21.80
2018-09-02T18:58:12.459Z,22.70
2018-09-02T19:00:19.319Z,23.40
2018-09-02T19:02:23.606Z,23.70
2018-09-02T19:04:27.520Z,23.90
2018-09-02T19:06:32.123Z,23.50
2018-09-02T19:08:35.948Z,23.40
2018-09-02T19:10:39.927Z,22.90
2018-09-02T19:12:44.603Z,22.10
2018-09-02T19:14:48.670Z,21.80
2018-09-02T19:16:52.977Z,21.60
2018-09-02T19:18:57.420Z,21.30
2018-09-02T19:21:01.721Z,21.30
2018-09-02T19:23:06.012Z,21.00
2018-09-02T19:25:10.066Z,21.30
2018-09-02T19:29:17.544Z,22.80
2018-09-02T19:31:21.613Z,22.90
2018-09-02T19:33:25.546Z,23.60
2018-09-02T19:37:33.965Z,23.30
2018-09-02T19:39:37.713Z,22.90
2018-09-02T19:41:41.705Z,22.40
2018-09-02T19:43:45.571Z,21.70
2018-09-02T19:45:49.399Z,21.70
2018-09-02T19:47:53.178Z,21.40
2018-09-02T19:49:57.224Z,21.20
2018-09-02T19:52:01.038Z,21.00
2018-09-02T19:54:05.160Z,20.80
2018-09-02T19:56:09.330Z,20.60
2018-09-02T19:58:13.558Z,21.20
2018-09-02T20:00:17.677Z,22.10
2018-09-02T20:02:21.720Z,22.70
2018-09-02T20:04:25.588Z,23.30
2018-09-02T20:06:29.455Z,23.20
2018-09-02T20:08:33.282Z,22.40
2018-09-02T20:10:37.087Z,22.40
2018-09-02T20:12:40.983Z,22.00
2018-09-02T20:14:44.867Z,21.60
2018-09-02T20:16:48.677Z,21.10
2018-09-02T20:18:52.532Z,20.90
2018-09-02T20:20:56.343Z,20.90
2018-09-02T20:23:00.117Z,20.80
2018-09-02T20:25:04.211Z,20.70
2018-09-02T20:27:08.823Z,21.20
2018-09-02T20:29:12.636Z,21.20
2018-09-02T20:31:16.425Z,22.20
2018-09-02T20:33:20.655Z,22.70
2018-09-02T20:35:24.885Z,23.10
2018-09-02T20:37:28.959Z,23.00
2018-09-02T20:39:32.814Z,22.70
2018-09-02T20:41:36.907Z,22.30
2018-09-02T20:43:40.710Z,21.80
2018-09-02T20:45:44.621Z,21.30
2018-09-02T20:47:48.517Z,21.10
2018-09-02T20:49:52.455Z,20.90
2018-09-02T20:51:56.382Z,20.80
2018-09-02T20:54:00.871Z,20.60
2018-09-02T20:56:04.742Z,20.50
2018-09-02T20:58:08.551Z,20.50
2018-09-02T21:00:12.456Z,21.50
2018-09-02T21:02:16.296Z,21.50
2018-09-02T21:04:20.220Z,21.90
2018-09-02T21:06:24.026Z,22.30
2018-09-02T21:08:27.871Z,22.40
2018-09-02T21:10:31.589Z,22.10
2018-09-02T21:12:35.511Z,21.70
2018-09-02T21:14:39.315Z,21.40
2018-09-02T21:16:43.103Z,21.20
2018-09-02T21:18:46.941Z,20.90
2018-09-02T21:20:50.815Z,20.60
2018-09-02T21:22:54.635Z,20.60
2018-09-02T21:24:58.442Z,20.30
2018-09-02T21:27:02.370Z,20.20
2018-09-02T21:29:06.206Z,20.20
2018-09-02T21:31:10.470Z,20.40
2018-09-02T21:33:14.205Z,21.00
2018-09-02T21:35:18.011Z,21.60
2018-09-02T21:37:22.082Z,22.10
2018-09-02T21:39:25.832Z,22.20
2018-09-02T21:41:29.608Z,22.10
2018-09-02T21:43:33.411Z,21.70
2018-09-02T21:45:37.275Z,21.40
2018-09-02T21:47:41.023Z,21.10
2018-09-02T21:49:45.073Z,20.80
2018-09-02T21:51:48.855Z,20.60
2018-09-02T21:53:52.582Z,20.40
2018-09-02T21:55:56.365Z,20.30
2018-09-02T21:58:00.141Z,20.10
2018-09-02T22:00:04.982Z,20.00
2018-09-02T22:02:08.814Z,19.90
2018-09-02T22:04:12.707Z,20.30
2018-09-02T22:06:16.480Z,21.00
2018-09-02T22:08:20.287Z,21.50
2018-09-02T22:10:24.000Z,21.80
2018-09-02T22:12:27.789Z,21.90
2018-09-02T22:14:31.530Z,21.70
2018-09-02T22:16:35.519Z,21.30
2018-09-02T22:18:39.280Z,21.00
2018-09-02T22:20:43.133Z,20.70
2018-09-02T22:22:46.879Z,20.40
2018-09-02T22:24:50.607Z,20.20
2018-09-02T22:26:54.394Z,20.10
2018-09-02T22:28:58.245Z,20.00
2018-09-02T22:31:02.022Z,19.90
2018-09-02T22:33:05.977Z,19.70
2018-09-02T22:35:09.737Z,19.80
2018-09-02T22:37:13.487Z,20.40
2018-09-02T22:39:17.270Z,21.10
2018-09-02T22:41:21.113Z,21.50
2018-09-02T22:43:24.912Z,21.80
2018-09-02T22:45:28.660Z,21.70
2018-09-02T22:47:32.407Z,21.50
2018-09-02T22:49:36.401Z,21.10
2018-09-02T22:51:40.149Z,20.80
2018-09-02T22:53:43.952Z,20.50
2018-09-02T22:55:47.706Z,20.30
2018-09-02T22:57:51.488Z,20.10
2018-09-02T22:59:55.258Z,19.90
2018-09-02T23:01:59.015Z,19.80
2018-09-02T23:04:02.869Z,19.70
2018-09-02T23:06:06.644Z,19.60
2018-09-02T23:08:10.401Z,19.60
2018-09-02T23:10:14.135Z,20.30
2018-09-02T23:12:17.959Z,20.90
2018-09-02T23:14:21.744Z,21.30
2018-09-02T23:16:25.486Z,21.60
2018-09-02T23:18:29.491Z,21.40
2018-09-02T23:20:33.285Z,21.10
2018-09-02T23:22:37.060Z,20.70
2018-09-02T23:24:40.836Z,20.00
2018-09-02T23:26:44.577Z,20.00
2018-09-02T23:28:48.387Z,19.70
2018-09-02T23:30:52.219Z,19.60
2018-09-02T23:32:56.064Z,19.40
2018-09-02T23:34:59.839Z,19.30
2018-09-02T23:37:03.854Z,19.10
2018-09-02T23:39:10.067Z,19.10
2018-09-02T23:41:13.819Z,19.10
2018-09-02T23:43:17.561Z,19.80
2018-09-02T23:45:21.365Z,20.40
2018-09-02T23:47:25.140Z,20.90
2018-09-02T23:49:28.950Z,21.20
2018-09-02T23:51:32.689Z,21.10
2018-09-02T23:53:36.454Z,20.70
2018-09-02T23:55:40.229Z,20.40
2018-09-02T23:57:43.964Z,20.10
2018-09-02T23:59:47.719Z,19.80
